CES311 ZSPD-ZBAD
Flight info
| Callsign | CES311 |
|---|---|
| Flight time | N/A |
| Altitude | 40100 |
| Route | POMOK G330 PIMOL A593 DALIM W157 AVBOX AVBOX5L |
| Aircraft | A359/H-SDE2E3GHIJ3J4J5LM1ORWXY/LB1D1 |
Departure
| Time | 2026-04-30 12:16 |
|---|---|
| Airport | Shanghai Pudong International Airport (ZSPD) |
Arrival
| Time | N/A |
|---|---|
| Airport | Beijing Daxing International Airport (ZBAD) |
| Time | Latitude | Longitude | Altitude | Speed | Heading |
|---|---|---|---|---|---|
| 2026-04-30 11:28 | 31.13668 | 121.80190 | 29 ft | 0 kts | 72° |
| 2026-04-30 12:02 | 31.13667 | 121.80186 | 29 ft | 3 kts | 72° |
| 2026-04-30 12:02 | 31.13657 | 121.80157 | 28 ft | 4 kts | 63° |
| 2026-04-30 12:02 | 31.13656 | 121.80153 | 28 ft | 0 kts | 62° |
| 2026-04-30 12:08 | 31.13658 | 121.80155 | 28 ft | 1 kts | 55° |
| 2026-04-30 12:08 | 31.13664 | 121.80157 | 27 ft | 2 kts | 21° |
| 2026-04-30 12:08 | 31.13670 | 121.80127 | 28 ft | 8 kts | 248° |
| 2026-04-30 12:09 | 31.13578 | 121.80117 | 29 ft | 20 kts | 168° |
| 2026-04-30 12:09 | 31.13457 | 121.80161 | 29 ft | 17 kts | 162° |
| 2026-04-30 12:09 | 31.13355 | 121.80201 | 29 ft | 16 kts | 161° |
| 2026-04-30 12:09 | 31.13252 | 121.80239 | 29 ft | 16 kts | 163° |
| 2026-04-30 12:10 | 31.13138 | 121.80281 | 29 ft | 18 kts | 162° |
| 2026-04-30 12:10 | 31.13021 | 121.80326 | 28 ft | 15 kts | 161° |
| 2026-04-30 12:10 | 31.12944 | 121.80340 | 29 ft | 6 kts | 206° |
| 2026-04-30 12:10 | 31.12908 | 121.80295 | 29 ft | 9 kts | 243° |
| 2026-04-30 12:11 | 31.12886 | 121.80211 | 29 ft | 12 kts | 252° |
| 2026-04-30 12:11 | 31.12815 | 121.80170 | 29 ft | 11 kts | 197° |
| 2026-04-30 12:11 | 31.12771 | 121.80111 | 29 ft | 9 kts | 251° |
| 2026-04-30 12:11 | 31.12748 | 121.80025 | 29 ft | 13 kts | 252° |
| 2026-04-30 12:12 | 31.12741 | 121.80003 | 29 ft | 0 kts | 252° |
| 2026-04-30 12:12 | 31.12742 | 121.80003 | 29 ft | 0 kts | 252° |
| 2026-04-30 12:12 | 31.12741 | 121.80003 | 29 ft | 0 kts | 252° |
| 2026-04-30 12:14 | 31.12734 | 121.79976 | 29 ft | 7 kts | 252° |
| 2026-04-30 12:14 | 31.12726 | 121.79905 | 29 ft | 11 kts | 285° |
| 2026-04-30 12:14 | 31.12781 | 121.79858 | 29 ft | 9 kts | 347° |
| 2026-04-30 12:15 | 31.12827 | 121.79842 | 29 ft | 0 kts | 342° |
| 2026-04-30 12:15 | 31.12949 | 121.79797 | 28 ft | 55 kts | 342° |
| 2026-04-30 12:15 | 31.13558 | 121.79567 | 29 ft | 127 kts | 342° |
| 2026-04-30 12:16 | 31.14591 | 121.79177 | 161 ft | 174 kts | 342° |
| 2026-04-30 12:16 | 31.15737 | 121.78724 | 947 ft | 172 kts | 340° |
| 2026-04-30 12:16 | 31.16839 | 121.78269 | 1837 ft | 161 kts | 339° |
| 2026-04-30 12:16 | 31.17863 | 121.77852 | 2531 ft | 153 kts | 339° |
| 2026-04-30 12:17 | 31.20079 | 121.76976 | 3021 ft | 197 kts | 339° |
| 2026-04-30 12:17 | 31.21494 | 121.76406 | 3110 ft | 229 kts | 339° |
| 2026-04-30 12:17 | 31.23068 | 121.75770 | 3495 ft | 246 kts | 340° |
| 2026-04-30 12:18 | 31.24704 | 121.75110 | 4180 ft | 250 kts | 340° |
| 2026-04-30 12:18 | 31.26343 | 121.74447 | 4990 ft | 249 kts | 340° |
| 2026-04-30 12:18 | 31.27989 | 121.73781 | 5681 ft | 252 kts | 340° |
| 2026-04-30 12:18 | 31.29654 | 121.73105 | 6028 ft | 253 kts | 340° |
| 2026-04-30 12:19 | 31.31318 | 121.72429 | 6103 ft | 254 kts | 340° |
| 2026-04-30 12:19 | 31.32989 | 121.71749 | 6102 ft | 254 kts | 340° |
| 2026-04-30 12:19 | 31.34660 | 121.71069 | 6099 ft | 255 kts | 340° |
| 2026-04-30 12:19 | 31.36341 | 121.70411 | 6266 ft | 256 kts | 341° |
| 2026-04-30 12:20 | 31.38040 | 121.69767 | 6884 ft | 257 kts | 341° |
| 2026-04-30 12:20 | 31.39166 | 121.69340 | 7397 ft | 256 kts | 340° |
| 2026-04-30 12:20 | 31.41437 | 121.68476 | 8360 ft | 258 kts | 339° |
| 2026-04-30 12:20 | 31.42565 | 121.68046 | 8834 ft | 259 kts | 339° |
| 2026-04-30 12:21 | 31.44863 | 121.67168 | 9774 ft | 261 kts | 338° |
| 2026-04-30 12:21 | 31.46013 | 121.66733 | 10222 ft | 262 kts | 338° |
| 2026-04-30 12:21 | 31.47787 | 121.66058 | 10575 ft | 276 kts | 338° |
| 2026-04-30 12:21 | 31.49657 | 121.65342 | 10853 ft | 291 kts | 338° |
| 2026-04-30 12:22 | 31.51628 | 121.64587 | 11161 ft | 304 kts | 338° |
| 2026-04-30 12:22 | 31.53661 | 121.63742 | 11417 ft | 316 kts | 334° |
| 2026-04-30 12:22 | 31.55577 | 121.62440 | 11730 ft | 322 kts | 320° |
| 2026-04-30 12:22 | 31.57241 | 121.60669 | 12212 ft | 325 kts | 314° |
| 2026-04-30 12:23 | 31.58835 | 121.58784 | 12758 ft | 326 kts | 313° |
| 2026-04-30 12:23 | 31.60433 | 121.56880 | 13318 ft | 328 kts | 313° |
| 2026-04-30 12:23 | 31.62037 | 121.54971 | 13867 ft | 329 kts | 313° |
| 2026-04-30 12:23 | 31.63649 | 121.53057 | 14373 ft | 331 kts | 313° |
| 2026-04-30 12:24 | 31.65269 | 121.51133 | 14883 ft | 331 kts | 313° |
| 2026-04-30 12:24 | 31.66888 | 121.49214 | 15427 ft | 331 kts | 313° |
| 2026-04-30 12:24 | 31.68510 | 121.47289 | 15935 ft | 332 kts | 313° |
| 2026-04-30 12:24 | 31.70140 | 121.45354 | 16443 ft | 334 kts | 313° |
| 2026-04-30 12:25 | 31.71775 | 121.43414 | 16966 ft | 335 kts | 313° |
| 2026-04-30 12:25 | 31.73417 | 121.41464 | 17473 ft | 336 kts | 313° |
| 2026-04-30 12:25 | 31.75060 | 121.39511 | 17979 ft | 337 kts | 313° |
| 2026-04-30 12:25 | 31.76712 | 121.37546 | 18457 ft | 338 kts | 313° |
| 2026-04-30 12:26 | 31.78371 | 121.35573 | 18872 ft | 340 kts | 312° |
| 2026-04-30 12:26 | 31.80038 | 121.33588 | 19288 ft | 342 kts | 312° |
| 2026-04-30 12:26 | 31.81709 | 121.31598 | 19696 ft | 343 kts | 312° |
| 2026-04-30 12:26 | 31.83391 | 121.29594 | 20093 ft | 345 kts | 312° |
| 2026-04-30 12:27 | 31.85081 | 121.27578 | 20440 ft | 349 kts | 312° |
| 2026-04-30 12:27 | 31.86795 | 121.25532 | 20745 ft | 352 kts | 312° |
| 2026-04-30 12:27 | 31.88516 | 121.23479 | 21148 ft | 353 kts | 313° |
| 2026-04-30 12:27 | 31.90241 | 121.21422 | 21571 ft | 353 kts | 312° |
| 2026-04-30 12:28 | 31.91944 | 121.19388 | 21960 ft | 354 kts | 312° |
| 2026-04-30 12:28 | 31.93677 | 121.17315 | 22325 ft | 356 kts | 312° |
| 2026-04-30 12:28 | 31.95417 | 121.15233 | 22687 ft | 358 kts | 312° |
| 2026-04-30 12:28 | 31.97165 | 121.13140 | 23033 ft | 359 kts | 312° |
| 2026-04-30 12:29 | 31.98920 | 121.11038 | 23382 ft | 361 kts | 312° |
| 2026-04-30 12:29 | 32.00685 | 121.08922 | 23729 ft | 362 kts | 312° |
| 2026-04-30 12:29 | 32.02458 | 121.06797 | 24001 ft | 364 kts | 312° |
| 2026-04-30 12:29 | 32.04236 | 121.04664 | 24282 ft | 366 kts | 312° |
| 2026-04-30 12:30 | 32.06026 | 121.02515 | 24564 ft | 368 kts | 312° |
| 2026-04-30 12:30 | 32.07796 | 121.00335 | 24844 ft | 369 kts | 309° |
| 2026-04-30 12:30 | 32.09350 | 120.97931 | 25120 ft | 369 kts | 302° |
| 2026-04-30 12:30 | 32.10537 | 120.95245 | 25379 ft | 371 kts | 294° |
| 2026-04-30 12:31 | 32.11467 | 120.92387 | 25621 ft | 375 kts | 291° |
| 2026-04-30 12:31 | 32.12308 | 120.89472 | 25908 ft | 377 kts | 290° |
| 2026-04-30 12:31 | 32.13111 | 120.86518 | 26226 ft | 378 kts | 290° |
| 2026-04-30 12:31 | 32.13901 | 120.83555 | 26535 ft | 380 kts | 290° |
| 2026-04-30 12:32 | 32.14698 | 120.80579 | 26857 ft | 381 kts | 290° |
| 2026-04-30 12:32 | 32.15508 | 120.77587 | 27186 ft | 383 kts | 290° |
| 2026-04-30 12:32 | 32.16266 | 120.74564 | 27523 ft | 386 kts | 287° |
| 2026-04-30 12:32 | 32.16763 | 120.71429 | 27865 ft | 390 kts | 282° |
| 2026-04-30 12:33 | 32.17113 | 120.68241 | 28219 ft | 393 kts | 281° |
| 2026-04-30 12:33 | 32.17413 | 120.65027 | 28570 ft | 396 kts | 280° |
| 2026-04-30 12:33 | 32.17686 | 120.61785 | 28928 ft | 398 kts | 279° |
| 2026-04-30 12:33 | 32.17949 | 120.58526 | 29276 ft | 400 kts | 279° |
| 2026-04-30 12:34 | 32.18211 | 120.55245 | 29651 ft | 402 kts | 279° |
| 2026-04-30 12:34 | 32.18475 | 120.51953 | 30033 ft | 404 kts | 279° |
| 2026-04-30 12:34 | 32.18743 | 120.48644 | 30364 ft | 407 kts | 279° |
| 2026-04-30 12:34 | 32.19015 | 120.45317 | 30654 ft | 409 kts | 279° |
| 2026-04-30 12:35 | 32.19291 | 120.41956 | 30952 ft | 411 kts | 279° |
| 2026-04-30 12:35 | 32.19567 | 120.38585 | 31216 ft | 414 kts | 279° |
| 2026-04-30 12:35 | 32.19843 | 120.35201 | 31517 ft | 416 kts | 279° |
| 2026-04-30 12:35 | 32.20122 | 120.31792 | 31802 ft | 418 kts | 279° |
| 2026-04-30 12:36 | 32.20401 | 120.28366 | 32069 ft | 420 kts | 279° |
| 2026-04-30 12:36 | 32.20685 | 120.24929 | 32330 ft | 422 kts | 279° |
| 2026-04-30 12:36 | 32.20970 | 120.21469 | 32569 ft | 424 kts | 279° |
| 2026-04-30 12:36 | 32.21253 | 120.17999 | 32809 ft | 426 kts | 279° |
| 2026-04-30 12:37 | 32.21536 | 120.14508 | 33035 ft | 428 kts | 279° |
| 2026-04-30 12:37 | 32.21816 | 120.11047 | 33318 ft | 428 kts | 279° |
| 2026-04-30 12:37 | 32.22098 | 120.07515 | 33743 ft | 426 kts | 279° |
| 2026-04-30 12:37 | 32.22376 | 120.04046 | 34127 ft | 424 kts | 279° |
| 2026-04-30 12:38 | 32.22652 | 120.00599 | 34407 ft | 424 kts | 279° |
| 2026-04-30 12:38 | 32.22931 | 119.97108 | 34673 ft | 424 kts | 279° |
| 2026-04-30 12:38 | 32.23205 | 119.93684 | 34945 ft | 424 kts | 279° |
| 2026-04-30 12:38 | 32.23484 | 119.90176 | 35217 ft | 424 kts | 279° |
| 2026-04-30 12:39 | 32.23799 | 119.86758 | 35480 ft | 423 kts | 282° |
| 2026-04-30 12:39 | 32.24394 | 119.83370 | 35744 ft | 420 kts | 287° |
| 2026-04-30 12:39 | 32.25333 | 119.80113 | 36026 ft | 418 kts | 294° |
| 2026-04-30 12:39 | 32.26637 | 119.77013 | 36334 ft | 416 kts | 301° |
| 2026-04-30 12:40 | 32.28244 | 119.74225 | 36568 ft | 417 kts | 307° |
| 2026-04-30 12:40 | 32.30198 | 119.71679 | 36820 ft | 420 kts | 314° |
| 2026-04-30 12:40 | 32.32435 | 119.69449 | 37037 ft | 423 kts | 319° |
| 2026-04-30 12:40 | 32.34792 | 119.67359 | 37281 ft | 424 kts | 320° |
| 2026-04-30 12:41 | 32.37185 | 119.65317 | 37527 ft | 425 kts | 320° |
| 2026-04-30 12:41 | 32.39599 | 119.63287 | 37764 ft | 426 kts | 320° |
| 2026-04-30 12:41 | 32.42014 | 119.61259 | 37998 ft | 426 kts | 320° |
| 2026-04-30 12:41 | 32.44430 | 119.59220 | 38224 ft | 427 kts | 320° |
| 2026-04-30 12:42 | 32.46837 | 119.57177 | 38452 ft | 427 kts | 320° |
| 2026-04-30 12:42 | 32.49256 | 119.55115 | 38676 ft | 428 kts | 320° |
| 2026-04-30 12:42 | 32.51661 | 119.53042 | 38868 ft | 427 kts | 320° |
| 2026-04-30 12:42 | 32.54053 | 119.50969 | 39137 ft | 425 kts | 320° |
| 2026-04-30 12:43 | 32.56439 | 119.48898 | 39334 ft | 426 kts | 320° |
| 2026-04-30 12:43 | 32.58842 | 119.46812 | 39392 ft | 429 kts | 320° |
| 2026-04-30 12:43 | 32.61251 | 119.44723 | 39552 ft | 429 kts | 320° |
| 2026-04-30 12:43 | 32.63664 | 119.42631 | 39737 ft | 429 kts | 320° |
| 2026-04-30 12:44 | 32.66076 | 119.40541 | 39903 ft | 429 kts | 320° |
| 2026-04-30 12:44 | 32.68489 | 119.38449 | 40073 ft | 430 kts | 320° |
| 2026-04-30 12:44 | 32.73321 | 119.34254 | 40163 ft | 430 kts | 320° |
| 2026-04-30 12:45 | 32.78146 | 119.30060 | 40164 ft | 430 kts | 320° |
| 2026-04-30 12:45 | 32.82968 | 119.25862 | 40164 ft | 430 kts | 320° |
| 2026-04-30 12:46 | 32.87790 | 119.21656 | 40161 ft | 429 kts | 320° |
| 2026-04-30 12:46 | 32.92606 | 119.17454 | 40159 ft | 429 kts | 320° |
| 2026-04-30 12:47 | 32.97430 | 119.13263 | 40159 ft | 429 kts | 320° |
| 2026-04-30 12:47 | 33.02268 | 119.09104 | 40159 ft | 429 kts | 320° |
| 2026-04-30 12:48 | 33.07110 | 119.04938 | 40156 ft | 429 kts | 320° |
| 2026-04-30 12:48 | 33.11945 | 119.00767 | 40159 ft | 429 kts | 320° |
| 2026-04-30 12:49 | 33.16781 | 118.96586 | 40156 ft | 429 kts | 321° |
| 2026-04-30 12:49 | 33.21625 | 118.92396 | 40144 ft | 429 kts | 321° |
| 2026-04-30 12:50 | 33.26409 | 118.88225 | 40158 ft | 428 kts | 321° |
| 2026-04-30 12:50 | 33.31213 | 118.84017 | 40160 ft | 428 kts | 321° |
| 2026-04-30 12:51 | 33.36032 | 118.79836 | 40162 ft | 428 kts | 321° |
| 2026-04-30 12:51 | 33.40853 | 118.75660 | 40159 ft | 428 kts | 321° |
| 2026-04-30 12:52 | 33.45677 | 118.71475 | 40166 ft | 428 kts | 321° |
| 2026-04-30 12:52 | 33.50505 | 118.67293 | 40156 ft | 429 kts | 321° |
| 2026-04-30 12:53 | 33.55329 | 118.63106 | 40154 ft | 427 kts | 322° |
| 2026-04-30 12:53 | 33.60140 | 118.58928 | 40156 ft | 426 kts | 322° |
| 2026-04-30 12:54 | 33.64940 | 118.54755 | 40151 ft | 426 kts | 322° |
| 2026-04-30 12:54 | 33.69738 | 118.50578 | 40147 ft | 426 kts | 322° |
| 2026-04-30 12:55 | 33.74533 | 118.46397 | 40149 ft | 426 kts | 322° |
| 2026-04-30 12:55 | 33.79323 | 118.42213 | 40147 ft | 425 kts | 322° |
| 2026-04-30 12:56 | 33.84106 | 118.38031 | 40149 ft | 425 kts | 322° |
| 2026-04-30 12:56 | 33.88883 | 118.33845 | 40148 ft | 424 kts | 322° |
| 2026-04-30 12:57 | 33.93616 | 118.29696 | 40150 ft | 423 kts | 322° |
| 2026-04-30 12:57 | 33.98376 | 118.25522 | 40151 ft | 423 kts | 322° |
| 2026-04-30 12:58 | 34.03144 | 118.21371 | 40142 ft | 423 kts | 322° |
| 2026-04-30 12:58 | 34.07922 | 118.17213 | 40150 ft | 425 kts | 322° |
| 2026-04-30 12:59 | 34.12727 | 118.13037 | 40145 ft | 426 kts | 322° |
| 2026-04-30 12:59 | 34.17529 | 118.08851 | 40145 ft | 426 kts | 322° |
| 2026-04-30 13:00 | 34.22326 | 118.04661 | 40134 ft | 424 kts | 322° |
| 2026-04-30 13:00 | 34.27233 | 118.00715 | 40140 ft | 424 kts | 329° |
| 2026-04-30 13:01 | 34.32742 | 117.98080 | 40138 ft | 428 kts | 338° |
| 2026-04-30 13:01 | 34.38459 | 117.95983 | 40134 ft | 430 kts | 340° |
| 2026-04-30 13:02 | 34.44215 | 117.93965 | 40129 ft | 430 kts | 340° |
| 2026-04-30 13:02 | 34.49922 | 117.91951 | 40127 ft | 430 kts | 340° |
| 2026-04-30 13:03 | 34.55664 | 117.89901 | 40130 ft | 430 kts | 340° |
| 2026-04-30 13:03 | 34.61396 | 117.87844 | 40130 ft | 430 kts | 340° |
| 2026-04-30 13:04 | 34.67134 | 117.85782 | 40124 ft | 429 kts | 340° |
| 2026-04-30 13:04 | 34.72860 | 117.83722 | 40126 ft | 429 kts | 340° |
| 2026-04-30 13:05 | 34.78588 | 117.81659 | 40125 ft | 429 kts | 340° |
| 2026-04-30 13:06 | 34.87181 | 117.78552 | 40119 ft | 430 kts | 340° |
| 2026-04-30 13:06 | 34.92913 | 117.76448 | 40117 ft | 430 kts | 340° |
| 2026-04-30 13:07 | 34.97677 | 117.74696 | 40118 ft | 430 kts | 340° |
| 2026-04-30 13:07 | 35.03407 | 117.72594 | 40115 ft | 430 kts | 340° |
| 2026-04-30 13:08 | 35.09136 | 117.70492 | 40124 ft | 430 kts | 340° |
| 2026-04-30 13:08 | 35.14874 | 117.68387 | 40109 ft | 431 kts | 340° |
| 2026-04-30 13:09 | 35.20612 | 117.66281 | 40109 ft | 431 kts | 340° |
| 2026-04-30 13:09 | 35.27208 | 117.63857 | 40109 ft | 431 kts | 340° |
| 2026-04-30 13:10 | 35.32949 | 117.61742 | 40108 ft | 431 kts | 340° |
| 2026-04-30 13:10 | 35.38690 | 117.59623 | 40104 ft | 432 kts | 340° |
| 2026-04-30 13:11 | 35.44454 | 117.57492 | 40099 ft | 432 kts | 340° |
| 2026-04-30 13:11 | 35.50205 | 117.55365 | 40106 ft | 432 kts | 340° |
| 2026-04-30 13:12 | 35.54984 | 117.53594 | 40101 ft | 432 kts | 340° |
| 2026-04-30 13:12 | 35.55905 | 117.53252 | 40099 ft | 432 kts | 340° |